Argyle, Michigan
Current Conditions -  °F | °C
As of 3:36 PM on Friday 21 Nov 2014 (Local Time) from KBAX Reporting Station
Clear Clear  
Wind Chill: 14°   Ceiling: Unl
Heat Index: 25°   Visibility: 10mi
Dew Point: 13°   Wind: 12mph
Humidity: 60%   Direction: 240°WSW
Pressure: 30.37"   Gusts: NA
Location:  43.56°N, 82.94°W
Report Text: KBAX 212036Z AUTO 24010KT 10SM CLR M04/M11 A3037 RMK AO2 T10401107
Loading
Personal Weather Stations






























Interactive Weather Map New forecast layout! Learn more

10-Day Weather Forecast

Advertisements
Track Severe Weather on mobile